Time;durP1;ratioP1;P1;durP2;ratioP2;P2;SDS_P1;SDS_P2;PMS_P1;PMS_P2;Temp;Humidity;BMP_temperature;BMP_pressure;BME280_temperature;BME280_humidity;BME280_pressure;Samples;Min_cycle;Max_cycle;Signal;HPM_P1;HPM_P2
2023/07/02 00:01:48;;;;;;;65.10;40.85;;;12.90;99.90;;;;;;21073437;28;20464;-48
2023/07/02 00:11:49;;;;;;;79.30;46.95;;;12.70;99.90;;;;;;21067849;28;20164;-46
2023/07/02 00:21:53;;;;;;;76.20;44.53;;;12.70;99.90;;;;;;21076192;28;20063;-49
2023/07/02 00:31:54;;;;;;;50.75;33.28;;;12.70;99.90;;;;;;21061046;28;20159;-46
2023/07/02 00:42:04;;;;;;;45.35;30.95;;;12.70;99.90;;;;;;21060206;28;20212;-48
2023/07/02 00:52:06;;;;;;;50.70;33.87;;;12.90;99.90;;;;;;21015987;28;20064;-48
2023/07/02 01:02:07;;;;;;;50.42;34.65;;;13.20;99.90;;;;;;21016200;28;20113;-52
2023/07/02 01:12:10;;;;;;;53.55;36.28;;;13.20;99.90;;;;;;21006779;28;20169;-48
2023/07/02 01:22:12;;;;;;;65.97;40.05;;;12.90;99.90;;;;;;20992516;28;20090;-48
2023/07/02 01:32:14;;;;;;;78.22;44.55;;;12.70;99.90;;;;;;21006424;28;20076;-45
2023/07/02 01:42:18;;;;;;;74.50;43.25;;;12.60;99.90;;;;;;21020499;28;20083;-47
2023/07/02 01:52:20;;;;;;;93.93;48.80;;;12.50;99.90;;;;;;21010937;28;20071;-48
2023/07/02 02:02:22;;;;;;;82.10;44.05;;;12.40;99.90;;;;;;20996637;28;20064;-50
2023/07/02 02:12:23;;;;;;;88.38;46.35;;;12.40;99.90;;;;;;20987870;28;20134;-48
2023/07/02 02:22:25;;;;;;;83.97;45.10;;;12.20;99.90;;;;;;20990051;28;20064;-50
2023/07/02 02:32:27;;;;;;;82.63;45.85;;;12.20;99.90;;;;;;20995116;28;20170;-49
2023/07/02 02:42:29;;;;;;;84.22;45.65;;;12.20;99.90;;;;;;20996859;28;20593;-50
2023/07/02 02:52:31;;;;;;;100.32;49.78;;;12.10;99.90;;;;;;20999688;28;20125;-49
2023/07/02 03:02:33;;;;;;;97.28;49.63;;;12.20;99.90;;;;;;21006208;28;20064;-49
2023/07/02 03:12:35;;;;;;;70.28;39.55;;;12.20;99.90;;;;;;20990221;28;20134;-49
2023/07/02 03:22:36;;;;;;;89.55;44.17;;;12.10;99.90;;;;;;20995664;28;20078;-47
2023/07/02 03:32:38;;;;;;;50.30;29.25;;;12.10;99.90;;;;;;20992411;28;20056;-49
2023/07/02 03:42:40;;;;;;;59.15;33.42;;;11.90;99.90;;;;;;20995869;28;20072;-53
2023/07/02 03:52:41;;;;;;;92.18;45.45;;;11.70;99.90;;;;;;21050546;28;20113;-47
2023/07/02 04:02:43;;;;;;;91.70;45.05;;;11.90;99.90;;;;;;21046019;28;20555;-47
2023/07/02 04:12:44;;;;;;;72.13;40.67;;;12.00;99.90;;;;;;21040555;28;20059;-47
2023/07/02 04:22:46;;;;;;;76.05;42.28;;;12.10;99.90;;;;;;21049741;28;20063;-50
2023/07/02 04:32:48;;;;;;;78.07;44.40;;;12.40;99.90;;;;;;21038433;28;20513;-49
2023/07/02 04:42:57;;;;;;;73.07;41.67;;;12.60;99.90;;;;;;21032983;28;20530;-47
2023/07/02 04:52:59;;;;;;;74.33;41.63;;;12.70;99.90;;;;;;21021836;28;20162;-43
2023/07/02 05:03:00;;;;;;;85.22;45.42;;;12.90;99.90;;;;;;20983310;28;20125;-47
2023/07/02 05:13:02;;;;;;;78.90;44.90;;;13.00;99.90;;;;;;20987721;28;20060;-45
2023/07/02 05:23:03;;;;;;;60.65;38.20;;;13.20;99.90;;;;;;20986915;28;20067;-51
2023/07/02 05:33:05;;;;;;;52.10;35.90;;;13.50;99.90;;;;;;20998526;28;20562;-50
2023/07/02 05:43:06;;;;;;;45.78;33.38;;;14.00;99.90;;;;;;21000227;28;20071;-47
2023/07/02 05:53:09;;;;;;;36.33;28.77;;;14.70;99.90;;;;;;21008464;28;20064;-49
2023/07/02 06:03:18;;;;;;;28.30;23.70;;;15.80;99.90;;;;;;21013930;28;20059;-47
2023/07/02 06:13:20;;;;;;;23.77;20.85;;;16.70;99.90;;;;;;20995686;28;20056;-49
2023/07/02 06:23:21;;;;;;;19.92;17.13;;;17.90;99.90;;;;;;21015118;28;20064;-52
2023/07/02 06:33:23;;;;;;;16.33;14.63;;;20.80;99.90;;;;;;20987551;28;20063;-48
2023/07/02 06:43:25;;;;;;;16.92;15.18;;;21.80;99.90;;;;;;21005240;28;20182;-47
2023/07/02 06:53:26;;;;;;;19.15;17.10;;;22.20;99.90;;;;;;21049606;28;20072;-49
2023/07/02 07:03:28;;;;;;;23.98;21.20;;;21.30;99.90;;;;;;21048755;28;20090;-53
2023/07/02 07:13:30;;;;;;;24.27;21.67;;;20.00;99.90;;;;;;21049317;28;20464;-52
2023/07/02 07:23:31;;;;;;;23.00;20.60;;;19.30;99.90;;;;;;21051792;28;20086;-45
2023/07/02 07:33:33;;;;;;;22.40;20.10;;;19.10;99.90;;;;;;21025121;28;20056;-44
2023/07/02 07:43:34;;;;;;;24.73;22.20;;;19.00;99.90;;;;;;21009574;28;20156;-47
2023/07/02 07:53:39;;;;;;;24.48;21.88;;;18.80;99.90;;;;;;21004988;28;20521;-46
2023/07/02 08:03:40;;;;;;;27.00;24.10;;;18.50;99.90;;;;;;20986267;28;20552;-54
2023/07/02 08:13:43;;;;;;;33.83;28.75;;;18.30;99.90;;;;;;20975034;28;20060;-48
2023/07/02 08:23:44;;;;;;;32.88;29.25;;;17.90;99.90;;;;;;20999438;28;20100;-48
2023/07/02 08:33:46;;;;;;;24.73;22.13;;;18.10;99.90;;;;;;21002913;28;20140;-44
2023/07/02 08:43:48;;;;;;;25.05;22.30;;;19.20;99.90;;;;;;21009237;28;20557;-52
2023/07/02 08:53:50;;;;;;;25.30;22.50;;;19.60;99.90;;;;;;21012765;28;20075;-49
2023/07/02 09:03:52;;;;;;;20.40;18.40;;;20.20;99.90;;;;;;21002232;28;20214;-51
2023/07/02 09:13:58;;;;;;;23.75;21.38;;;21.20;99.90;;;;;;21028304;28;20510;-53
2023/07/02 09:24:00;;;;;;;23.10;20.80;;;21.60;99.90;;;;;;21004427;28;20159;-51
2023/07/02 09:34:02;;;;;;;24.95;22.45;;;22.30;99.90;;;;;;20989738;28;20438;-43
2023/07/02 09:44:04;;;;;;;25.80;23.15;;;22.90;99.90;;;;;;20991856;28;20127;-53
2023/07/02 09:54:05;;;;;;;24.00;21.50;;;22.90;99.90;;;;;;20989999;28;20075;-51
2023/07/02 10:04:19;;;;;;;25.50;22.95;;;22.40;99.90;;;;;;21000992;28;20608;-49
2023/07/02 10:14:20;;;;;;;24.23;21.90;;;23.40;99.90;;;;;;20997593;28;20064;-55
2023/07/02 10:24:22;;;;;;;24.95;22.48;;;24.10;99.90;;;;;;21001278;28;20598;-56
2023/07/02 10:34:34;;;;;;;16.92;15.27;;;25.70;99.90;;;;;;21016046;28;20078;-57
2023/07/02 10:44:56;;;;;;;19.60;17.80;;;27.10;99.90;;;;;;21009879;28;20115;-55
2023/07/02 10:54:58;;;;;;;20.40;18.30;;;25.50;99.90;;;;;;21004965;28;20064;-50
2023/07/02 11:05:00;;;;;;;24.13;21.80;;;25.10;99.90;;;;;;20983796;28;20136;-55
2023/07/02 11:15:09;;;;;;;27.52;24.48;;;23.50;99.90;;;;;;20981655;28;20151;-52
2023/07/02 11:25:20;;;;;;;27.17;24.42;;;21.90;99.90;;;;;;20988266;28;20064;-50
2023/07/02 11:35:33;;;;;;;24.02;21.50;;;22.20;99.90;;;;;;20992322;28;20079;-55
2023/07/02 11:45:35;;;;;;;25.45;22.92;;;22.90;99.90;;;;;;20995832;28;20126;-52
2023/07/02 11:55:37;;;;;;;27.83;24.85;;;22.50;99.90;;;;;;21007375;28;20060;-50
2023/07/02 12:05:39;;;;;;;28.75;25.58;;;22.20;99.90;;;;;;20992033;28;20123;-53
2023/07/02 12:15:41;;;;;;;26.23;23.65;;;22.30;99.90;;;;;;20997009;28;20178;-52
2023/07/02 12:25:43;;;;;;;21.35;19.25;;;23.30;99.90;;;;;;20997477;28;20497;-49
2023/07/02 12:35:44;;;;;;;22.23;19.92;;;23.50;99.90;;;;;;20982708;28;20122;-52
2023/07/02 12:45:46;;;;;;;21.05;19.05;;;24.50;99.90;;;;;;21004326;28;20097;-44
2023/07/02 12:55:48;;;;;;;25.23;22.73;;;23.80;99.90;;;;;;21048267;28;20574;-45
2023/07/02 13:05:50;;;;;;;22.95;20.65;;;22.90;99.90;;;;;;21023676;28;20493;-51
2023/07/02 13:15:51;;;;;;;22.52;20.08;;;22.40;99.90;;;;;;21049713;28;20216;-50
2023/07/02 13:25:53;;;;;;;22.75;20.58;;;22.00;99.90;;;;;;21053855;28;20072;-50
2023/07/02 13:35:54;;;;;;;24.52;21.88;;;22.50;99.90;;;;;;21057029;28;20067;-55
2023/07/02 13:45:56;;;;;;;24.98;22.60;;;22.50;99.90;;;;;;21028833;28;20076;-50
2023/07/02 13:55:58;;;;;;;23.70;21.30;;;22.70;99.90;;;;;;21001192;28;20467;-49
2023/07/02 14:06:00;;;;;;;20.52;18.52;;;22.70;99.90;;;;;;20981431;28;20581;-49
2023/07/02 14:16:01;;;;;;;19.63;17.73;;;21.70;99.90;;;;;;20982217;28;20113;-50
2023/07/02 14:26:03;;;;;;;16.73;14.77;;;22.50;99.90;;;;;;20987951;28;20068;-49
2023/07/02 14:36:06;;;;;;;15.55;14.00;;;23.30;99.90;;;;;;20993262;28;20165;-55
2023/07/02 14:46:08;;;;;;;17.48;15.88;;;24.90;99.90;;;;;;20993697;28;20137;-50
2023/07/02 14:56:09;;;;;;;17.27;15.52;;;24.00;99.90;;;;;;21007321;28;20067;-54
2023/07/02 15:06:13;;;;;;;15.05;13.55;;;23.60;99.90;;;;;;21001549;28;20070;-48
2023/07/02 15:16:15;;;;;;;17.75;16.02;;;24.40;99.90;;;;;;21006637;28;20105;-44
2023/07/02 15:26:17;;;;;;;17.60;14.55;;;23.00;99.90;;;;;;21009116;28;20473;-49
2023/07/02 15:36:19;;;;;;;16.35;14.65;;;22.20;99.90;;;;;;20979710;28;20071;-53
2023/07/02 15:46:21;;;;;;;17.65;15.85;;;21.80;99.90;;;;;;20976632;28;20080;-53
2023/07/02 15:56:23;;;;;;;20.65;18.25;;;21.70;99.90;;;;;;20980068;28;20524;-52
2023/07/02 16:06:31;;;;;;;21.60;19.35;;;21.70;99.90;;;;;;20975289;28;20135;-49
2023/07/02 16:16:33;;;;;;;19.30;17.37;;;21.30;99.90;;;;;;20984841;28;20174;-54
2023/07/02 16:26:35;;;;;;;20.92;18.55;;;20.90;99.90;;;;;;20992349;28;20568;-50
2023/07/02 16:36:37;;;;;;;22.60;20.30;;;20.70;99.90;;;;;;20996262;28;20127;-52
2023/07/02 16:46:40;;;;;;;22.50;19.98;;;20.40;99.90;;;;;;21017892;28;20076;-49
2023/07/02 16:56:45;;;;;;;24.20;21.65;;;19.90;99.90;;;;;;21023759;28;20644;-50
2023/07/02 17:06:51;;;;;;;24.13;21.20;;;19.60;99.90;;;;;;20991856;28;20513;-52
2023/07/02 17:16:55;;;;;;;26.33;22.85;;;19.30;99.90;;;;;;20985381;28;20076;-55
2023/07/02 17:26:58;;;;;;;25.13;21.95;;;18.90;99.90;;;;;;20989197;28;20110;-54
2023/07/02 17:37:02;;;;;;;29.55;24.70;;;18.60;99.90;;;;;;20994411;28;20485;-53
2023/07/02 17:47:07;;;;;;;27.67;24.73;;;18.40;99.90;;;;;;21006930;28;20076;-54
2023/07/02 17:57:10;;;;;;;31.85;27.13;;;18.30;99.90;;;;;;21007858;28;20090;-48
2023/07/02 18:07:18;;;;;;;30.08;26.35;;;18.10;99.90;;;;;;21010921;28;20090;-49
2023/07/02 18:17:19;;;;;;;30.40;27.10;;;18.00;99.90;;;;;;21015327;28;20071;-55
2023/07/02 18:27:22;;;;;;;29.33;26.08;;;17.90;99.90;;;;;;21018179;28;20057;-48
2023/07/02 18:37:25;;;;;;;31.77;27.88;;;17.70;99.90;;;;;;20999177;28;20060;-48
2023/07/02 18:47:28;;;;;;;40.05;32.20;;;17.50;99.90;;;;;;21001628;28;20080;-50
2023/07/02 18:57:30;;;;;;;42.60;34.45;;;17.10;99.90;;;;;;20995574;28;20503;-49
2023/07/02 19:07:33;;;;;;;43.05;35.05;;;16.60;99.90;;;;;;20992081;28;20089;-49
2023/07/02 19:17:35;;;;;;;39.65;33.85;;;16.30;99.90;;;;;;20991129;28;20067;-50
2023/07/02 19:27:37;;;;;;;42.78;33.65;;;16.20;99.90;;;;;;21002964;28;20083;-50
2023/07/02 19:37:39;;;;;;;42.50;34.70;;;15.90;99.90;;;;;;21004737;28;20068;-48
2023/07/02 19:47:41;;;;;;;47.30;36.15;;;15.50;99.90;;;;;;21020891;28;20139;-47
2023/07/02 19:57:42;;;;;;;47.13;35.45;;;15.20;99.90;;;;;;21016397;28;20135;-44
2023/07/02 20:07:44;;;;;;;40.85;32.30;;;14.90;99.90;;;;;;20981334;28;20478;-43
2023/07/02 20:17:45;;;;;;;52.05;34.20;;;14.70;99.90;;;;;;20987213;28;20080;-51
2023/07/02 20:27:47;;;;;;;40.47;30.98;;;14.80;99.90;;;;;;20994911;28;20060;-52
2023/07/02 20:37:52;;;;;;;46.75;35.00;;;14.80;99.90;;;;;;21001685;28;20060;-44
2023/07/02 20:47:53;;;;;;;43.38;33.58;;;14.80;99.90;;;;;;21013263;28;20084;-42
2023/07/02 20:57:55;;;;;;;41.60;31.63;;;14.80;99.90;;;;;;21006846;28;20128;-52
2023/07/02 21:07:56;;;;;;;44.40;34.28;;;15.00;99.90;;;;;;21020790;28;20109;-52
2023/07/02 21:17:58;;;;;;;44.08;33.17;;;15.20;99.90;;;;;;21024011;28;20067;-49
2023/07/02 21:27:59;;;;;;;38.45;31.45;;;15.80;99.90;;;;;;21029144;28;20402;-47
2023/07/02 21:38:01;;;;;;;43.80;33.95;;;15.90;99.90;;;;;;21011444;28;20060;-49
2023/07/02 21:48:03;;;;;;;36.00;31.30;;;16.10;99.90;;;;;;20988021;28;20076;-49
2023/07/02 21:58:04;;;;;;;35.72;31.00;;;16.60;99.90;;;;;;21000059;28;20071;-48
2023/07/02 22:08:06;;;;;;;41.85;34.35;;;16.60;99.90;;;;;;20993982;28;20124;-45
2023/07/02 22:18:08;;;;;;;45.55;35.50;;;16.40;99.90;;;;;;21000250;28;20090;-43
2023/07/02 22:28:10;;;;;;;46.08;35.53;;;15.90;99.90;;;;;;21007120;28;20072;-49
2023/07/02 22:38:12;;;;;;;50.33;37.88;;;15.60;99.90;;;;;;21009948;28;20181;-46
2023/07/02 22:48:13;;;;;;;50.05;38.53;;;15.50;99.90;;;;;;21029365;28;20131;-49
2023/07/02 22:58:15;;;;;;;51.25;40.60;;;15.60;99.90;;;;;;21044805;28;20115;-47
2023/07/02 23:08:16;;;;;;;47.85;37.33;;;15.90;99.90;;;;;;21044148;28;20118;-48
2023/07/02 23:18:18;;;;;;;52.22;40.05;;;16.10;99.90;;;;;;21036791;28;20445;-44
2023/07/02 23:28:19;;;;;;;48.00;39.00;;;16.20;99.90;;;;;;21047460;28;20056;-43
2023/07/02 23:38:21;;;;;;;45.28;38.40;;;16.30;99.90;;;;;;21047500;28;20863;-43
2023/07/02 23:48:22;;;;;;;51.80;40.47;;;16.40;99.90;;;;;;21013648;28;20071;-51
2023/07/02 23:58:24;;;;;;;49.00;38.72;;;16.50;99.90;;;;;;21043096;28;20109;-47
